Mansonville, Canada
Current Conditions -  °F | °C
As of 11:35 AM on Thursday 30 Oct 2014 (Local Time) from KEFK Reporting Station
Overcast Overcast  
Wind Chill: 37°   Ceiling: 3100
Heat Index: 42°   Visibility: 10mi
Dew Point: 35°   Wind: 7mph
Humidity: 77%   Direction: 290°WNW
Pressure: 29.95"   Gusts: NA
Location:  45.05°N, 72.39°W
Report Text: KEFK 301535Z AUTO 29006KT 10SM OVC031 05/02 A2995 RMK AO2 T00530015
Loading
Personal Weather Stations






























Interactive Weather Map
Tropical Storm Tracking
New forecast layout! Learn more

10-Day Weather Forecast

Advertisements
Track Severe Weather on mobile